sensor_id;sensor_type;location;lat;lon;timestamp;temperature;humidity
51615;DHT22;37695;52.960;6.188;2022-11-20T00:00:24;-1.30;99.90
51615;DHT22;37695;52.960;6.188;2022-11-20T00:02:50;-1.30;99.90
51615;DHT22;37695;52.960;6.188;2022-11-20T00:05:15;-1.30;99.90
51615;DHT22;37695;52.960;6.188;2022-11-20T00:07:41;-1.20;99.90
51615;DHT22;37695;52.960;6.188;2022-11-20T00:10:06;-1.20;99.90
51615;DHT22;37695;52.960;6.188;2022-11-20T00:12:32;-1.10;99.90
51615;DHT22;37695;52.960;6.188;2022-11-20T00:14:58;-0.90;99.90
51615;DHT22;37695;52.960;6.188;2022-11-20T00:17:23;-1.00;99.90
51615;DHT22;37695;52.960;6.188;2022-11-20T00:19:49;-0.90;99.90
51615;DHT22;37695;52.960;6.188;2022-11-20T00:22:14;-0.90;99.90
51615;DHT22;37695;52.960;6.188;2022-11-20T00:24:40;-0.90;99.90
51615;DHT22;37695;52.960;6.188;2022-11-20T00:27:05;-0.80;99.90
51615;DHT22;37695;52.960;6.188;2022-11-20T00:29:31;-0.90;99.90
51615;DHT22;37695;52.960;6.188;2022-11-20T00:31:56;-0.50;99.90
51615;DHT22;37695;52.960;6.188;2022-11-20T00:34:22;-0.90;99.90
51615;DHT22;37695;52.960;6.188;2022-11-20T00:36:47;-0.20;99.90
51615;DHT22;37695;52.960;6.188;2022-11-20T00:39:13;-0.70;99.90
51615;DHT22;37695;52.960;6.188;2022-11-20T00:41:38;-0.80;99.90
51615;DHT22;37695;52.960;6.188;2022-11-20T00:44:04;-2.20;99.90
51615;DHT22;37695;52.960;6.188;2022-11-20T00:46:29;-0.80;99.90
51615;DHT22;37695;52.960;6.188;2022-11-20T00:48:55;-0.80;99.90
51615;DHT22;37695;52.960;6.188;2022-11-20T00:51:23;-0.80;99.90
51615;DHT22;37695;52.960;6.188;2022-11-20T00:53:49;-0.80;99.90
51615;DHT22;37695;52.960;6.188;2022-11-20T00:56:16;-0.80;99.90
51615;DHT22;37695;52.960;6.188;2022-11-20T00:58:44;-0.80;99.90
51615;DHT22;37695;52.960;6.188;2022-11-20T01:01:18;-0.90;99.90
51615;DHT22;37695;52.960;6.188;2022-11-20T01:03:46;-0.90;99.90
51615;DHT22;37695;52.960;6.188;2022-11-20T01:06:15;-1.00;99.90
51615;DHT22;37695;52.960;6.188;2022-11-20T01:08:40;-1.00;99.90
51615;DHT22;37695;52.960;6.188;2022-11-20T01:11:11;-1.00;99.90
51615;DHT22;37695;52.960;6.188;2022-11-20T01:13:37;-1.00;99.90
51615;DHT22;37695;52.960;6.188;2022-11-20T01:16:24;-1.00;99.90
51615;DHT22;37695;52.960;6.188;2022-11-20T01:18:52;-0.90;99.90
51615;DHT22;37695;52.960;6.188;2022-11-20T01:21:23;-0.90;99.90
51615;DHT22;37695;52.960;6.188;2022-11-20T01:23:50;-0.80;99.90
51615;DHT22;37695;52.960;6.188;2022-11-20T01:26:18;-0.80;99.90
51615;DHT22;37695;52.960;6.188;2022-11-20T01:28:44;-0.80;99.90
51615;DHT22;37695;52.960;6.188;2022-11-20T01:31:45;-0.40;99.90
51615;DHT22;37695;52.960;6.188;2022-11-20T01:34:09;-0.80;99.90
51615;DHT22;37695;52.960;6.188;2022-11-20T01:36:36;-0.70;99.90
51615;DHT22;37695;52.960;6.188;2022-11-20T01:39:05;-0.70;99.90
51615;DHT22;37695;52.960;6.188;2022-11-20T01:41:32;-0.70;99.90
51615;DHT22;37695;52.960;6.188;2022-11-20T01:44:19;-0.70;99.90
51615;DHT22;37695;52.960;6.188;2022-11-20T01:47:02;-0.70;99.90
51615;DHT22;37695;52.960;6.188;2022-11-20T01:52:17;-0.50;99.90
51615;DHT22;37695;52.960;6.188;2022-11-20T01:54:58;-0.70;99.90
51615;DHT22;37695;52.960;6.188;2022-11-20T01:57:27;-0.40;99.90
51615;DHT22;37695;52.960;6.188;2022-11-20T02:00:11;-0.60;99.90
51615;DHT22;37695;52.960;6.188;2022-11-20T02:02:39;-0.60;99.90
51615;DHT22;37695;52.960;6.188;2022-11-20T02:05:33;-0.60;99.90
51615;DHT22;37695;52.960;6.188;2022-11-20T02:07:59;-0.60;99.90
51615;DHT22;37695;52.960;6.188;2022-11-20T02:10:26;-0.60;99.90
51615;DHT22;37695;52.960;6.188;2022-11-20T02:12:52;-0.60;99.90
51615;DHT22;37695;52.960;6.188;2022-11-20T02:15:36;-0.60;99.90
51615;DHT22;37695;52.960;6.188;2022-11-20T02:18:02;-0.60;99.90
51615;DHT22;37695;52.960;6.188;2022-11-20T02:20:28;-0.50;99.90
51615;DHT22;37695;52.960;6.188;2022-11-20T02:23:08;-0.40;99.90
51615;DHT22;37695;52.960;6.188;2022-11-20T02:25:36;-0.40;99.90
51615;DHT22;37695;52.960;6.188;2022-11-20T02:28:03;-0.40;99.90
51615;DHT22;37695;52.960;6.188;2022-11-20T02:30:30;-0.40;99.90
51615;DHT22;37695;52.960;6.188;2022-11-20T02:32:55;-0.40;99.90
51615;DHT22;37695;52.960;6.188;2022-11-20T02:37:53;-0.40;99.90
51615;DHT22;37695;52.960;6.188;2022-11-20T02:40:19;-0.40;99.90
51615;DHT22;37695;52.960;6.188;2022-11-20T02:42:45;-0.10;99.90
51615;DHT22;37695;52.960;6.188;2022-11-20T02:45:10;-0.30;99.90
51615;DHT22;37695;52.960;6.188;2022-11-20T02:47:36;-0.40;99.90
51615;DHT22;37695;52.960;6.188;2022-11-20T02:50:02;-0.30;99.90
51615;DHT22;37695;52.960;6.188;2022-11-20T02:52:27;-0.30;99.90
51615;DHT22;37695;52.960;6.188;2022-11-20T02:54:54;-0.30;99.90
51615;DHT22;37695;52.960;6.188;2022-11-20T02:57:19;-0.40;99.90
51615;DHT22;37695;52.960;6.188;2022-11-20T02:59:45;-0.40;99.90
51615;DHT22;37695;52.960;6.188;2022-11-20T03:02:10;-0.40;99.90
51615;DHT22;37695;52.960;6.188;2022-11-20T03:04:36;-0.30;99.90
51615;DHT22;37695;52.960;6.188;2022-11-20T03:07:02;-0.30;99.90
51615;DHT22;37695;52.960;6.188;2022-11-20T03:09:27;-0.40;99.90
51615;DHT22;37695;52.960;6.188;2022-11-20T03:11:53;-0.40;99.90
51615;DHT22;37695;52.960;6.188;2022-11-20T03:14:18;-0.30;99.90
51615;DHT22;37695;52.960;6.188;2022-11-20T03:16:44;-0.20;99.90
51615;DHT22;37695;52.960;6.188;2022-11-20T03:19:12;-0.30;99.90
51615;DHT22;37695;52.960;6.188;2022-11-20T03:21:37;-0.30;99.90
51615;DHT22;37695;52.960;6.188;2022-11-20T03:24:03;-0.30;99.90
51615;DHT22;37695;52.960;6.188;2022-11-20T03:26:29;-0.20;99.90
51615;DHT22;37695;52.960;6.188;2022-11-20T03:28:57;-0.20;99.90
51615;DHT22;37695;52.960;6.188;2022-11-20T03:31:25;-0.20;99.90
51615;DHT22;37695;52.960;6.188;2022-11-20T03:33:51;-0.10;99.90
51615;DHT22;37695;52.960;6.188;2022-11-20T03:36:19;-0.30;99.90
51615;DHT22;37695;52.960;6.188;2022-11-20T03:38:45;-0.20;99.90
51615;DHT22;37695;52.960;6.188;2022-11-20T03:41:14;-0.20;99.90
51615;DHT22;37695;52.960;6.188;2022-11-20T03:43:40;-0.20;99.90
51615;DHT22;37695;52.960;6.188;2022-11-20T03:46:06;-0.20;99.90
51615;DHT22;37695;52.960;6.188;2022-11-20T03:48:31;-0.10;99.90
51615;DHT22;37695;52.960;6.188;2022-11-20T03:51:11;-0.10;99.90
51615;DHT22;37695;52.960;6.188;2022-11-20T03:53:38;-0.20;99.90
51615;DHT22;37695;52.960;6.188;2022-11-20T03:56:04;-0.20;99.90
51615;DHT22;37695;52.960;6.188;2022-11-20T03:58:30;-0.30;99.90
51615;DHT22;37695;52.960;6.188;2022-11-20T04:00:56;-0.40;99.90
51615;DHT22;37695;52.960;6.188;2022-11-20T04:03:21;-0.40;99.90
51615;DHT22;37695;52.960;6.188;2022-11-20T04:05:47;-0.40;99.90
51615;DHT22;37695;52.960;6.188;2022-11-20T04:08:12;-0.40;99.90
51615;DHT22;37695;52.960;6.188;2022-11-20T04:10:38;-0.50;99.90
51615;DHT22;37695;52.960;6.188;2022-11-20T04:13:03;-0.50;99.90
51615;DHT22;37695;52.960;6.188;2022-11-20T04:15:29;-0.60;99.90
51615;DHT22;37695;52.960;6.188;2022-11-20T04:17:54;-0.60;99.90
51615;DHT22;37695;52.960;6.188;2022-11-20T04:20:20;-0.60;99.90
51615;DHT22;37695;52.960;6.188;2022-11-20T04:22:46;-0.60;99.90
51615;DHT22;37695;52.960;6.188;2022-11-20T04:25:11;-0.60;99.90
51615;DHT22;37695;52.960;6.188;2022-11-20T04:27:37;-0.70;99.90
51615;DHT22;37695;52.960;6.188;2022-11-20T04:30:02;-0.70;99.90
51615;DHT22;37695;52.960;6.188;2022-11-20T04:32:28;-0.60;99.90
51615;DHT22;37695;52.960;6.188;2022-11-20T04:34:54;-0.60;99.90
51615;DHT22;37695;52.960;6.188;2022-11-20T04:37:19;-0.50;99.90
51615;DHT22;37695;52.960;6.188;2022-11-20T04:39:45;-0.50;99.90
51615;DHT22;37695;52.960;6.188;2022-11-20T04:42:10;-0.40;99.90
51615;DHT22;37695;52.960;6.188;2022-11-20T04:44:54;-0.40;99.90
51615;DHT22;37695;52.960;6.188;2022-11-20T04:47:21;-0.40;99.90
51615;DHT22;37695;52.960;6.188;2022-11-20T04:49:46;-0.30;99.90
51615;DHT22;37695;52.960;6.188;2022-11-20T04:52:12;-0.30;99.90
51615;DHT22;37695;52.960;6.188;2022-11-20T04:54:38;-0.50;99.90
51615;DHT22;37695;52.960;6.188;2022-11-20T04:57:03;-0.40;99.90
51615;DHT22;37695;52.960;6.188;2022-11-20T04:59:29;-0.40;99.90
51615;DHT22;37695;52.960;6.188;2022-11-20T05:01:54;-0.50;99.90
51615;DHT22;37695;52.960;6.188;2022-11-20T05:04:20;-0.50;99.90
51615;DHT22;37695;52.960;6.188;2022-11-20T05:06:45;-0.60;99.90
51615;DHT22;37695;52.960;6.188;2022-11-20T05:09:12;-0.60;99.90
51615;DHT22;37695;52.960;6.188;2022-11-20T05:11:37;-0.60;99.90
51615;DHT22;37695;52.960;6.188;2022-11-20T05:14:03;-0.60;99.90
51615;DHT22;37695;52.960;6.188;2022-11-20T05:16:29;-0.60;99.90
51615;DHT22;37695;52.960;6.188;2022-11-20T05:18:54;-0.40;99.90
51615;DHT22;37695;52.960;6.188;2022-11-20T05:21:20;-0.40;99.90
51615;DHT22;37695;52.960;6.188;2022-11-20T05:23:46;-0.50;99.90
51615;DHT22;37695;52.960;6.188;2022-11-20T05:26:15;-0.50;99.90
51615;DHT22;37695;52.960;6.188;2022-11-20T05:28:40;-0.50;99.90
51615;DHT22;37695;52.960;6.188;2022-11-20T05:31:08;-0.50;99.90
51615;DHT22;37695;52.960;6.188;2022-11-20T05:33:34;-0.50;99.90
51615;DHT22;37695;52.960;6.188;2022-11-20T05:36:04;-0.40;99.90
51615;DHT22;37695;52.960;6.188;2022-11-20T05:38:29;-0.30;99.90
51615;DHT22;37695;52.960;6.188;2022-11-20T05:41:02;-0.30;99.90
51615;DHT22;37695;52.960;6.188;2022-11-20T05:43:28;-0.30;99.90
51615;DHT22;37695;52.960;6.188;2022-11-20T05:45:54;-0.20;99.90
51615;DHT22;37695;52.960;6.188;2022-11-20T05:48:20;-0.30;99.90
51615;DHT22;37695;52.960;6.188;2022-11-20T05:50:46;-0.20;99.90
51615;DHT22;37695;52.960;6.188;2022-11-20T05:53:12;-0.30;99.90
51615;DHT22;37695;52.960;6.188;2022-11-20T05:55:38;-0.30;99.90
51615;DHT22;37695;52.960;6.188;2022-11-20T05:58:03;-0.30;99.90
51615;DHT22;37695;52.960;6.188;2022-11-20T06:00:29;-0.30;99.90
51615;DHT22;37695;52.960;6.188;2022-11-20T06:02:54;-0.20;99.90
51615;DHT22;37695;52.960;6.188;2022-11-20T06:05:20;-0.30;99.90
51615;DHT22;37695;52.960;6.188;2022-11-20T06:07:45;-0.30;99.90
51615;DHT22;37695;52.960;6.188;2022-11-20T06:10:11;-0.30;99.90
51615;DHT22;37695;52.960;6.188;2022-11-20T06:12:36;-0.30;99.90
51615;DHT22;37695;52.960;6.188;2022-11-20T06:15:03;-0.30;99.90
51615;DHT22;37695;52.960;6.188;2022-11-20T06:17:28;-0.20;99.90
51615;DHT22;37695;52.960;6.188;2022-11-20T06:19:54;-0.30;99.90
51615;DHT22;37695;52.960;6.188;2022-11-20T06:22:20;-0.30;99.90
51615;DHT22;37695;52.960;6.188;2022-11-20T06:24:45;-0.30;99.90
51615;DHT22;37695;52.960;6.188;2022-11-20T06:27:11;-0.30;99.90
51615;DHT22;37695;52.960;6.188;2022-11-20T06:29:36;-0.30;99.90
51615;DHT22;37695;52.960;6.188;2022-11-20T06:32:02;-0.30;99.90
51615;DHT22;37695;52.960;6.188;2022-11-20T06:34:27;-0.30;99.90
51615;DHT22;37695;52.960;6.188;2022-11-20T06:36:53;-0.40;99.90
51615;DHT22;37695;52.960;6.188;2022-11-20T06:39:18;-0.40;99.90
51615;DHT22;37695;52.960;6.188;2022-11-20T06:41:44;-0.40;99.90
51615;DHT22;37695;52.960;6.188;2022-11-20T06:44:09;-0.40;99.90
51615;DHT22;37695;52.960;6.188;2022-11-20T06:46:35;-0.30;99.90
51615;DHT22;37695;52.960;6.188;2022-11-20T06:49:00;-0.40;99.90
51615;DHT22;37695;52.960;6.188;2022-11-20T06:51:26;-0.30;99.90
51615;DHT22;37695;52.960;6.188;2022-11-20T06:53:52;-0.30;99.90
51615;DHT22;37695;52.960;6.188;2022-11-20T06:56:18;-0.30;99.90
51615;DHT22;37695;52.960;6.188;2022-11-20T06:58:43;-0.30;99.90
51615;DHT22;37695;52.960;6.188;2022-11-20T07:01:11;-0.30;99.90
51615;DHT22;37695;52.960;6.188;2022-11-20T07:03:37;-0.30;99.90
51615;DHT22;37695;52.960;6.188;2022-11-20T07:06:03;-0.20;99.90
51615;DHT22;37695;52.960;6.188;2022-11-20T07:08:30;-0.10;99.90
51615;DHT22;37695;52.960;6.188;2022-11-20T07:11:00;-0.10;99.90
51615;DHT22;37695;52.960;6.188;2022-11-20T07:13:27;-0.10;99.90
51615;DHT22;37695;52.960;6.188;2022-11-20T07:15:53;0.10;99.90
51615;DHT22;37695;52.960;6.188;2022-11-20T07:18:19;0.00;99.90
51615;DHT22;37695;52.960;6.188;2022-11-20T07:20:45;0.10;99.90
51615;DHT22;37695;52.960;6.188;2022-11-20T07:23:10;0.40;99.90
51615;DHT22;37695;52.960;6.188;2022-11-20T07:25:36;0.30;99.90
51615;DHT22;37695;52.960;6.188;2022-11-20T07:28:01;0.40;99.90
51615;DHT22;37695;52.960;6.188;2022-11-20T07:30:27;0.20;99.90
51615;DHT22;37695;52.960;6.188;2022-11-20T07:32:54;0.20;99.90
51615;DHT22;37695;52.960;6.188;2022-11-20T07:35:21;0.30;99.90
51615;DHT22;37695;52.960;6.188;2022-11-20T07:37:47;0.10;99.90
51615;DHT22;37695;52.960;6.188;2022-11-20T07:40:14;0.10;99.90
51615;DHT22;37695;52.960;6.188;2022-11-20T07:42:53;0.30;99.90
51615;DHT22;37695;52.960;6.188;2022-11-20T07:45:20;0.00;99.90
51615;DHT22;37695;52.960;6.188;2022-11-20T07:47:46;0.00;99.90
51615;DHT22;37695;52.960;6.188;2022-11-20T07:50:12;0.00;99.90
51615;DHT22;37695;52.960;6.188;2022-11-20T07:52:38;0.10;99.90
51615;DHT22;37695;52.960;6.188;2022-11-20T07:55:05;0.10;99.90
51615;DHT22;37695;52.960;6.188;2022-11-20T07:57:30;0.10;99.90
51615;DHT22;37695;52.960;6.188;2022-11-20T07:59:56;0.20;99.90
51615;DHT22;37695;52.960;6.188;2022-11-20T08:02:21;0.20;99.90
51615;DHT22;37695;52.960;6.188;2022-11-20T08:04:47;0.20;99.90
51615;DHT22;37695;52.960;6.188;2022-11-20T08:07:12;0.20;99.90
51615;DHT22;37695;52.960;6.188;2022-11-20T08:09:38;0.20;99.90
51615;DHT22;37695;52.960;6.188;2022-11-20T08:12:04;-0.10;99.90
51615;DHT22;37695;52.960;6.188;2022-11-20T08:14:47;0.20;99.90
51615;DHT22;37695;52.960;6.188;2022-11-20T08:17:13;0.30;99.90
51615;DHT22;37695;52.960;6.188;2022-11-20T08:19:39;0.40;99.90
51615;DHT22;37695;52.960;6.188;2022-11-20T08:22:04;0.40;99.90
51615;DHT22;37695;52.960;6.188;2022-11-20T08:24:30;0.40;99.90
51615;DHT22;37695;52.960;6.188;2022-11-20T08:26:57;0.50;99.90
51615;DHT22;37695;52.960;6.188;2022-11-20T08:29:24;0.60;99.90
51615;DHT22;37695;52.960;6.188;2022-11-20T08:31:50;0.60;99.90
51615;DHT22;37695;52.960;6.188;2022-11-20T08:34:16;0.60;99.90
51615;DHT22;37695;52.960;6.188;2022-11-20T08:36:41;0.60;99.90
51615;DHT22;37695;52.960;6.188;2022-11-20T08:39:07;0.60;99.90
51615;DHT22;37695;52.960;6.188;2022-11-20T08:41:33;0.70;99.90
51615;DHT22;37695;52.960;6.188;2022-11-20T08:43:59;0.70;99.90
51615;DHT22;37695;52.960;6.188;2022-11-20T08:46:27;0.70;99.90
51615;DHT22;37695;52.960;6.188;2022-11-20T08:48:52;0.80;99.90
51615;DHT22;37695;52.960;6.188;2022-11-20T08:51:19;0.80;99.90
51615;DHT22;37695;52.960;6.188;2022-11-20T08:53:45;0.80;99.90
51615;DHT22;37695;52.960;6.188;2022-11-20T08:56:11;0.80;99.90
51615;DHT22;37695;52.960;6.188;2022-11-20T08:58:38;0.90;99.90
51615;DHT22;37695;52.960;6.188;2022-11-20T09:01:04;1.20;99.90
51615;DHT22;37695;52.960;6.188;2022-11-20T09:03:30;0.90;99.90
51615;DHT22;37695;52.960;6.188;2022-11-20T09:06:04;0.90;99.90
51615;DHT22;37695;52.960;6.188;2022-11-20T09:08:31;0.90;99.90
51615;DHT22;37695;52.960;6.188;2022-11-20T09:10:58;1.00;99.90
51615;DHT22;37695;52.960;6.188;2022-11-20T09:13:25;1.00;99.90
51615;DHT22;37695;52.960;6.188;2022-11-20T09:18:20;1.20;99.90
51615;DHT22;37695;52.960;6.188;2022-11-20T09:20:46;1.30;99.90
51615;DHT22;37695;52.960;6.188;2022-11-20T09:23:12;1.40;99.90
51615;DHT22;37695;52.960;6.188;2022-11-20T09:25:37;1.40;99.90
51615;DHT22;37695;52.960;6.188;2022-11-20T09:28:03;1.40;99.90
51615;DHT22;37695;52.960;6.188;2022-11-20T09:30:28;1.50;99.90
51615;DHT22;37695;52.960;6.188;2022-11-20T09:32:54;1.80;99.90
51615;DHT22;37695;52.960;6.188;2022-11-20T09:35:19;1.70;99.90
51615;DHT22;37695;52.960;6.188;2022-11-20T09:37:45;1.80;99.90
51615;DHT22;37695;52.960;6.188;2022-11-20T09:40:21;2.00;99.90
51615;DHT22;37695;52.960;6.188;2022-11-20T09:42:48;2.00;99.90
51615;DHT22;37695;52.960;6.188;2022-11-20T09:45:24;2.10;99.90
51615;DHT22;37695;52.960;6.188;2022-11-20T09:50:51;2.30;99.90
51615;DHT22;37695;52.960;6.188;2022-11-20T09:53:30;2.40;99.90
51615;DHT22;37695;52.960;6.188;2022-11-20T09:56:01;2.40;99.90
51615;DHT22;37695;52.960;6.188;2022-11-20T09:58:43;2.60;99.90
51615;DHT22;37695;52.960;6.188;2022-11-20T10:01:18;2.40;99.90
51615;DHT22;37695;52.960;6.188;2022-11-20T10:04:03;2.50;99.90
51615;DHT22;37695;52.960;6.188;2022-11-20T10:09:06;1.10;99.90
51615;DHT22;37695;52.960;6.188;2022-11-20T10:17:41;2.80;99.90
51615;DHT22;37695;52.960;6.188;2022-11-20T10:20:40;2.80;99.90
51615;DHT22;37695;52.960;6.188;2022-11-20T10:23:24;2.90;99.90
51615;DHT22;37695;52.960;6.188;2022-11-20T10:26:11;2.90;99.90
51615;DHT22;37695;52.960;6.188;2022-11-20T10:29:07;2.90;99.90
51615;DHT22;37695;52.960;6.188;2022-11-20T10:31:40;2.90;99.90
51615;DHT22;37695;52.960;6.188;2022-11-20T10:34:38;2.90;99.90
51615;DHT22;37695;52.960;6.188;2022-11-20T10:37:13;2.90;99.90
51615;DHT22;37695;52.960;6.188;2022-11-20T10:39:54;2.80;99.90
51615;DHT22;37695;52.960;6.188;2022-11-20T10:42:42;2.80;99.90
51615;DHT22;37695;52.960;6.188;2022-11-20T10:47:54;2.80;99.90
51615;DHT22;37695;52.960;6.188;2022-11-20T10:50:21;2.70;99.90
51615;DHT22;37695;52.960;6.188;2022-11-20T10:53:25;2.90;99.90
51615;DHT22;37695;52.960;6.188;2022-11-20T10:55:58;2.90;99.90
51615;DHT22;37695;52.960;6.188;2022-11-20T11:01:15;3.00;99.90
51615;DHT22;37695;52.960;6.188;2022-11-20T11:03:41;3.10;99.90
51615;DHT22;37695;52.960;6.188;2022-11-20T11:06:17;3.00;99.90
51615;DHT22;37695;52.960;6.188;2022-11-20T11:08:47;3.10;99.90
51615;DHT22;37695;52.960;6.188;2022-11-20T11:13:46;3.20;99.90
51615;DHT22;37695;52.960;6.188;2022-11-20T11:16:26;3.30;99.90
51615;DHT22;37695;52.960;6.188;2022-11-20T11:19:03;3.40;99.90
51615;DHT22;37695;52.960;6.188;2022-11-20T11:21:29;3.40;99.90
51615;DHT22;37695;52.960;6.188;2022-11-20T11:24:00;3.50;99.90
51615;DHT22;37695;52.960;6.188;2022-11-20T11:26:26;3.50;99.90
51615;DHT22;37695;52.960;6.188;2022-11-20T11:29:03;3.50;99.90
51615;DHT22;37695;52.960;6.188;2022-11-20T11:31:31;3.50;99.90
51615;DHT22;37695;52.960;6.188;2022-11-20T11:34:14;3.50;99.90
51615;DHT22;37695;52.960;6.188;2022-11-20T11:36:42;3.50;99.90
51615;DHT22;37695;52.960;6.188;2022-11-20T11:39:18;3.50;99.90
51615;DHT22;37695;52.960;6.188;2022-11-20T11:41:45;3.50;99.90
51615;DHT22;37695;52.960;6.188;2022-11-20T11:47:11;3.50;99.90
51615;DHT22;37695;52.960;6.188;2022-11-20T11:49:41;3.50;99.90
51615;DHT22;37695;52.960;6.188;2022-11-20T11:52:14;3.50;99.90
51615;DHT22;37695;52.960;6.188;2022-11-20T11:54:53;3.50;99.90
51615;DHT22;37695;52.960;6.188;2022-11-20T11:57:22;3.60;99.90
51615;DHT22;37695;52.960;6.188;2022-11-20T12:05:11;3.80;99.90
51615;DHT22;37695;52.960;6.188;2022-11-20T12:07:41;3.50;99.90
51615;DHT22;37695;52.960;6.188;2022-11-20T12:13:21;3.80;99.90
51615;DHT22;37695;52.960;6.188;2022-11-20T12:15:49;3.70;99.90
51615;DHT22;37695;52.960;6.188;2022-11-20T12:18:21;3.70;99.90
51615;DHT22;37695;52.960;6.188;2022-11-20T12:24:11;3.70;99.90
51615;DHT22;37695;52.960;6.188;2022-11-20T12:27:08;3.70;99.90
51615;DHT22;37695;52.960;6.188;2022-11-20T12:33:01;3.70;99.90
51615;DHT22;37695;52.960;6.188;2022-11-20T12:38:40;3.70;99.90
51615;DHT22;37695;52.960;6.188;2022-11-20T12:44:45;3.70;99.90
51615;DHT22;37695;52.960;6.188;2022-11-20T12:47:54;3.50;99.90
51615;DHT22;37695;52.960;6.188;2022-11-20T12:50:30;3.50;99.90
51615;DHT22;37695;52.960;6.188;2022-11-20T12:53:07;3.40;99.90
51615;DHT22;37695;52.960;6.188;2022-11-20T13:07:13;3.50;99.90
51615;DHT22;37695;52.960;6.188;2022-11-20T13:09:48;3.50;99.90
51615;DHT22;37695;52.960;6.188;2022-11-20T13:17:54;3.50;99.90
51615;DHT22;37695;52.960;6.188;2022-11-20T13:20:20;3.50;99.90
51615;DHT22;37695;52.960;6.188;2022-11-20T13:22:47;2.60;99.90
51615;DHT22;37695;52.960;6.188;2022-11-20T13:25:30;3.40;99.90
51615;DHT22;37695;52.960;6.188;2022-11-20T13:27:59;3.50;99.90
51615;DHT22;37695;52.960;6.188;2022-11-20T13:30:27;3.50;99.90
51615;DHT22;37695;52.960;6.188;2022-11-20T13:33:08;3.50;99.90
51615;DHT22;37695;52.960;6.188;2022-11-20T13:35:37;3.50;99.90
51615;DHT22;37695;52.960;6.188;2022-11-20T13:38:10;3.50;99.90
51615;DHT22;37695;52.960;6.188;2022-11-20T13:40:57;3.50;99.90
51615;DHT22;37695;52.960;6.188;2022-11-20T13:43:37;3.50;99.90
51615;DHT22;37695;52.960;6.188;2022-11-20T13:46:06;3.50;99.90
51615;DHT22;37695;52.960;6.188;2022-11-20T13:48:51;3.50;99.90
51615;DHT22;37695;52.960;6.188;2022-11-20T13:51:32;3.40;99.90
51615;DHT22;37695;52.960;6.188;2022-11-20T13:54:14;3.50;99.90
51615;DHT22;37695;52.960;6.188;2022-11-20T14:00:03;3.40;99.90
51615;DHT22;37695;52.960;6.188;2022-11-20T14:02:30;3.40;99.90
51615;DHT22;37695;52.960;6.188;2022-11-20T14:04:59;3.30;99.90
51615;DHT22;37695;52.960;6.188;2022-11-20T14:07:34;3.30;99.90
51615;DHT22;37695;52.960;6.188;2022-11-20T14:10:01;3.30;99.90
51615;DHT22;37695;52.960;6.188;2022-11-20T14:12:30;3.30;99.90
51615;DHT22;37695;52.960;6.188;2022-11-20T14:14:56;3.30;99.90
51615;DHT22;37695;52.960;6.188;2022-11-20T14:17:30;3.30;99.90
51615;DHT22;37695;52.960;6.188;2022-11-20T14:20:04;3.30;99.90
51615;DHT22;37695;52.960;6.188;2022-11-20T14:22:30;3.30;99.90
51615;DHT22;37695;52.960;6.188;2022-11-20T14:27:43;3.30;99.90
51615;DHT22;37695;52.960;6.188;2022-11-20T14:30:14;3.30;99.90
51615;DHT22;37695;52.960;6.188;2022-11-20T14:32:42;3.20;99.90
51615;DHT22;37695;52.960;6.188;2022-11-20T14:35:13;3.20;99.90
51615;DHT22;37695;52.960;6.188;2022-11-20T14:37:40;3.20;99.90
51615;DHT22;37695;52.960;6.188;2022-11-20T14:40:31;3.10;99.90
51615;DHT22;37695;52.960;6.188;2022-11-20T14:42:58;3.10;99.90
51615;DHT22;37695;52.960;6.188;2022-11-20T14:45:25;3.20;99.90
51615;DHT22;37695;52.960;6.188;2022-11-20T14:47:52;3.20;99.90
51615;DHT22;37695;52.960;6.188;2022-11-20T14:50:27;3.10;99.90
51615;DHT22;37695;52.960;6.188;2022-11-20T14:52:59;3.20;99.90
51615;DHT22;37695;52.960;6.188;2022-11-20T14:55:36;3.10;99.90
51615;DHT22;37695;52.960;6.188;2022-11-20T14:58:05;3.10;99.90
51615;DHT22;37695;52.960;6.188;2022-11-20T15:00:32;3.10;99.90
51615;DHT22;37695;52.960;6.188;2022-11-20T15:02:58;3.10;99.90
51615;DHT22;37695;52.960;6.188;2022-11-20T15:05:43;3.10;99.90
51615;DHT22;37695;52.960;6.188;2022-11-20T15:08:10;3.10;99.90
51615;DHT22;37695;52.960;6.188;2022-11-20T15:10:36;3.40;99.90
51615;DHT22;37695;52.960;6.188;2022-11-20T15:13:10;3.00;99.90
51615;DHT22;37695;52.960;6.188;2022-11-20T15:15:52;3.00;99.90
51615;DHT22;37695;52.960;6.188;2022-11-20T15:18:29;3.00;99.90
51615;DHT22;37695;52.960;6.188;2022-11-20T15:20:56;3.00;99.90
51615;DHT22;37695;52.960;6.188;2022-11-20T15:23:23;3.10;99.90
51615;DHT22;37695;52.960;6.188;2022-11-20T15:25:49;3.10;99.90
51615;DHT22;37695;52.960;6.188;2022-11-20T15:30:49;3.00;99.90
51615;DHT22;37695;52.960;6.188;2022-11-20T15:33:16;3.00;99.90
51615;DHT22;37695;52.960;6.188;2022-11-20T15:35:42;3.00;99.90
51615;DHT22;37695;52.960;6.188;2022-11-20T15:38:08;3.00;99.90
51615;DHT22;37695;52.960;6.188;2022-11-20T15:40:34;2.90;99.90
51615;DHT22;37695;52.960;6.188;2022-11-20T15:42:59;2.90;99.90
51615;DHT22;37695;52.960;6.188;2022-11-20T15:46:20;2.90;99.90
51615;DHT22;37695;52.960;6.188;2022-11-20T15:48:22;2.90;99.90
51615;DHT22;37695;52.960;6.188;2022-11-20T15:53:30;2.90;99.90
51615;DHT22;37695;52.960;6.188;2022-11-20T15:55:55;2.90;99.90
51615;DHT22;37695;52.960;6.188;2022-11-20T15:58:21;2.80;99.90
51615;DHT22;37695;52.960;6.188;2022-11-20T16:00:48;2.90;99.90
51615;DHT22;37695;52.960;6.188;2022-11-20T16:03:15;2.80;99.90
51615;DHT22;37695;52.960;6.188;2022-11-20T16:05:41;2.80;99.90
51615;DHT22;37695;52.960;6.188;2022-11-20T16:08:07;2.80;99.90
51615;DHT22;37695;52.960;6.188;2022-11-20T16:10:33;2.80;99.90
51615;DHT22;37695;52.960;6.188;2022-11-20T16:12:58;2.80;99.90
51615;DHT22;37695;52.960;6.188;2022-11-20T16:15:50;2.80;99.90
51615;DHT22;37695;52.960;6.188;2022-11-20T16:18:18;2.90;99.90
51615;DHT22;37695;52.960;6.188;2022-11-20T16:20:46;2.80;99.90
51615;DHT22;37695;52.960;6.188;2022-11-20T16:23:12;2.80;99.90
51615;DHT22;37695;52.960;6.188;2022-11-20T16:25:38;2.80;99.90
51615;DHT22;37695;52.960;6.188;2022-11-20T16:28:04;2.80;99.90
51615;DHT22;37695;52.960;6.188;2022-11-20T16:30:31;2.70;99.90
51615;DHT22;37695;52.960;6.188;2022-11-20T16:32:58;2.70;99.90
51615;DHT22;37695;52.960;6.188;2022-11-20T16:35:26;2.70;99.90
51615;DHT22;37695;52.960;6.188;2022-11-20T16:37:52;2.70;99.90
51615;DHT22;37695;52.960;6.188;2022-11-20T16:40:18;2.70;99.90
51615;DHT22;37695;52.960;6.188;2022-11-20T16:42:43;2.70;99.90
51615;DHT22;37695;52.960;6.188;2022-11-20T16:45:10;3.40;99.90
51615;DHT22;37695;52.960;6.188;2022-11-20T16:47:36;2.70;99.90
51615;DHT22;37695;52.960;6.188;2022-11-20T16:50:02;2.70;99.90
51615;DHT22;37695;52.960;6.188;2022-11-20T16:52:30;2.60;99.90
51615;DHT22;37695;52.960;6.188;2022-11-20T16:54:56;2.60;99.90
51615;DHT22;37695;52.960;6.188;2022-11-20T16:57:21;2.60;99.90
51615;DHT22;37695;52.960;6.188;2022-11-20T16:59:47;2.60;99.90
51615;DHT22;37695;52.960;6.188;2022-11-20T17:02:13;2.60;99.90
51615;DHT22;37695;52.960;6.188;2022-11-20T17:04:39;2.60;99.90
51615;DHT22;37695;52.960;6.188;2022-11-20T17:07:05;2.60;99.90
51615;DHT22;37695;52.960;6.188;2022-11-20T17:09:31;2.50;99.90
51615;DHT22;37695;52.960;6.188;2022-11-20T17:11:57;2.50;99.90